Time;durP1;ratioP1;P1;durP2;ratioP2;P2;SDS_P1;SDS_P2;PMS_P1;PMS_P2;Temp;Humidity;BMP_temperature;BMP_pressure;BME280_temperature;BME280_humidity;BME280_pressure;Samples;Min_cycle;Max_cycle;Signal;HPM_P1;HPM_P2
2022/07/20 00:00:33;;;;;;;1.75;1.65;;;26.50;60.60;;;;;;5077253;28;20107;-74
2022/07/20 00:03:07;;;;;;;1.88;1.75;;;26.50;60.60;;;;;;5094929;28;20056;-74
2022/07/20 00:05:33;;;;;;;2.03;1.80;;;26.60;60.30;;;;;;5095572;28;20020;-74
2022/07/20 00:07:59;;;;;;;1.88;1.73;;;26.60;60.00;;;;;;5077364;28;20024;-74
2022/07/20 00:13:09;;;;;;;2.53;1.65;;;26.70;59.90;;;;;;5095421;28;20097;-74
2022/07/20 00:15:35;;;;;;;5.20;2.10;;;26.70;59.90;;;;;;5076603;28;20024;-74
2022/07/20 00:18:01;;;;;;;1.77;1.67;;;26.70;59.90;;;;;;5094996;28;20020;-74
2022/07/20 00:20:27;;;;;;;1.75;1.65;;;26.70;59.70;;;;;;5094964;28;20103;-74
2022/07/20 00:22:53;;;;;;;1.98;1.80;;;26.60;60.00;;;;;;5094967;28;20020;-74
2022/07/20 00:25:19;;;;;;;2.85;1.90;;;26.70;60.30;;;;;;5094759;28;20078;-74
2022/07/20 00:27:45;;;;;;;1.85;1.75;;;26.70;60.00;;;;;;5094800;28;20509;-74
2022/07/20 00:30:12;;;;;;;1.77;1.67;;;26.60;60.00;;;;;;5094631;28;20024;-74
2022/07/20 00:32:38;;;;;;;2.30;2.20;;;26.60;60.00;;;;;;5094558;28;20031;-74
2022/07/20 00:35:07;;;;;;;2.97;2.25;;;26.60;60.00;;;;;;5094682;28;20028;-74
2022/07/20 00:37:32;;;;;;;4.05;1.77;;;26.60;60.10;;;;;;5094519;28;20093;-74
2022/07/20 00:39:58;;;;;;;2.42;1.75;;;26.50;60.40;;;;;;5094390;28;20032;-75
2022/07/20 00:42:24;;;;;;;2.60;1.42;;;26.60;60.30;;;;;;5076209;28;20027;-74
2022/07/20 00:44:50;;;;;;;2.25;2.03;;;26.60;60.30;;;;;;5094555;28;20020;-74
2022/07/20 00:47:16;;;;;;;2.38;1.70;;;26.60;60.30;;;;;;5094204;28;20024;-74
2022/07/20 00:49:42;;;;;;;3.35;1.70;;;26.60;60.30;;;;;;5076178;28;20032;-74
2022/07/20 00:52:08;;;;;;;3.05;2.28;;;26.60;60.50;;;;;;5094436;28;20035;-74
2022/07/20 00:54:34;;;;;;;2.55;1.60;;;26.60;60.70;;;;;;5094381;28;20107;-74
2022/07/20 00:57:00;;;;;;;2.95;1.95;;;26.60;60.70;;;;;;5076020;28;20123;-74
2022/07/20 00:59:26;;;;;;;3.72;1.90;;;26.60;61.10;;;;;;5094164;28;20020;-74
2022/07/20 01:01:52;;;;;;;1.98;1.70;;;26.50;61.30;;;;;;5094143;28;20016;-74
2022/07/20 01:04:18;;;;;;;2.28;1.90;;;26.50;61.40;;;;;;5075627;28;20113;-74
2022/07/20 01:06:44;;;;;;;4.38;2.08;;;26.40;61.70;;;;;;5075822;28;20062;-75
2022/07/20 01:09:10;;;;;;;4.45;2.05;;;26.40;61.80;;;;;;5093133;28;20495;-74
2022/07/20 01:11:36;;;;;;;3.13;2.47;;;26.50;62.00;;;;;;5075529;28;20028;-75
2022/07/20 01:14:08;;;;;;;2.15;1.95;;;26.40;62.20;;;;;;5075677;28;20388;-74
2022/07/20 01:16:36;;;;;;;2.15;2.05;;;26.40;62.50;;;;;;5075528;28;20024;-74
2022/07/20 01:19:02;;;;;;;2.15;1.77;;;26.40;62.70;;;;;;5093735;28;20605;-74
2022/07/20 01:21:28;;;;;;;3.92;2.05;;;26.30;63.00;;;;;;5093916;28;20024;-74
2022/07/20 01:23:54;;;;;;;2.75;2.28;;;26.30;64.10;;;;;;5093856;28;20024;-74
2022/07/20 01:26:20;;;;;;;1.83;1.73;;;26.30;63.30;;;;;;5093639;28;20032;-74
2022/07/20 01:28:46;;;;;;;2.50;1.85;;;26.30;63.50;;;;;;5093585;28;20403;-74
2022/07/20 01:31:12;;;;;;;2.65;1.90;;;26.30;63.50;;;;;;5093608;28;20050;-74
2022/07/20 01:33:38;;;;;;;2.10;1.90;;;26.30;63.80;;;;;;5093511;28;20107;-74
2022/07/20 01:36:04;;;;;;;2.10;2.00;;;26.20;64.10;;;;;;5093425;28;20575;-74
2022/07/20 01:38:30;;;;;;;2.40;2.08;;;26.20;64.50;;;;;;5093472;28;20016;-74
2022/07/20 01:40:56;;;;;;;2.00;1.90;;;26.20;65.00;;;;;;5093383;28;20031;-74
2022/07/20 01:43:22;;;;;;;2.63;1.80;;;26.20;65.30;;;;;;5093367;28;20135;-74
2022/07/20 01:45:47;;;;;;;2.40;2.20;;;26.10;65.30;;;;;;5093444;28;20032;-74
2022/07/20 01:48:13;;;;;;;3.28;2.40;;;26.10;65.70;;;;;;5093503;28;20028;-74
2022/07/20 01:50:39;;;;;;;3.08;2.00;;;26.10;66.10;;;;;;5093225;28;20020;-74
2022/07/20 01:53:06;;;;;;;2.75;2.50;;;26.10;66.40;;;;;;5093437;28;20125;-74
2022/07/20 01:55:32;;;;;;;1.95;1.85;;;26.10;66.60;;;;;;5093428;28;20467;-74
2022/07/20 01:57:58;;;;;;;4.55;2.10;;;26.10;66.90;;;;;;5093268;28;20024;-74
2022/07/20 02:00:24;;;;;;;2.75;2.30;;;26.10;67.40;;;;;;5093383;28;20020;-74
2022/07/20 02:02:50;;;;;;;2.35;2.22;;;26.10;67.60;;;;;;5093280;28;20076;-74
2022/07/20 02:05:17;;;;;;;2.47;2.38;;;26.10;67.70;;;;;;5093179;28;20020;-74
2022/07/20 02:07:43;;;;;;;2.58;2.40;;;26.10;68.10;;;;;;5075086;28;20024;-74
2022/07/20 02:10:12;;;;;;;2.50;2.20;;;26.00;68.40;;;;;;5093125;28;20031;-74
2022/07/20 02:12:38;;;;;;;3.58;2.30;;;26.00;68.80;;;;;;5093248;28;20016;-74
2022/07/20 02:15:07;;;;;;;2.05;1.92;;;25.90;69.20;;;;;;5092875;28;20464;-74
2022/07/20 02:17:33;;;;;;;2.67;2.47;;;25.90;69.50;;;;;;5093306;28;20041;-74
2022/07/20 02:19:59;;;;;;;2.75;2.30;;;25.90;69.60;;;;;;5093388;28;20222;-74
2022/07/20 02:22:25;;;;;;;2.28;2.17;;;25.90;69.90;;;;;;5097001;28;20020;-74
2022/07/20 02:24:51;;;;;;;2.05;1.90;;;25.90;70.10;;;;;;5097115;28;20472;-74
2022/07/20 02:27:17;;;;;;;1.73;1.60;;;25.90;70.30;;;;;;5097121;28;20396;-74
2022/07/20 02:29:43;;;;;;;2.55;2.35;;;25.90;70.50;;;;;;5096900;28;20024;-74
2022/07/20 02:32:08;;;;;;;2.13;2.03;;;25.90;70.80;;;;;;5097020;28;20035;-74
2022/07/20 02:34:34;;;;;;;5.40;2.72;;;25.80;70.90;;;;;;5097028;28;20480;-74
2022/07/20 02:37:00;;;;;;;2.42;2.28;;;25.80;71.10;;;;;;5096856;28;20024;-74
2022/07/20 02:39:26;;;;;;;6.38;2.40;;;25.80;71.30;;;;;;5096816;28;20464;-74
2022/07/20 02:41:52;;;;;;;2.50;2.40;;;25.80;71.40;;;;;;5078572;28;20016;-74
2022/07/20 02:44:17;;;;;;;4.50;2.10;;;25.80;71.50;;;;;;5096865;28;20024;-74
2022/07/20 02:46:43;;;;;;;2.30;2.20;;;25.80;71.80;;;;;;5096997;28;20027;-74
2022/07/20 02:49:09;;;;;;;3.55;2.13;;;25.80;72.00;;;;;;5096690;28;20468;-74
2022/07/20 02:51:34;;;;;;;4.18;2.38;;;25.70;72.20;;;;;;5078416;28;20052;-74
2022/07/20 02:54:00;;;;;;;2.33;2.13;;;25.70;72.40;;;;;;5096684;28;20024;-74
2022/07/20 02:56:26;;;;;;;2.47;2.28;;;25.70;72.50;;;;;;5096462;28;20024;-74
2022/07/20 02:58:52;;;;;;;3.60;2.50;;;25.70;72.70;;;;;;5096641;28;20028;-75
2022/07/20 03:01:17;;;;;;;2.75;1.95;;;25.70;72.60;;;;;;5096543;28;20391;-74
2022/07/20 03:03:43;;;;;;;2.17;1.88;;;25.70;72.50;;;;;;5096278;28;20419;-75
2022/07/20 03:06:09;;;;;;;2.63;2.42;;;25.70;72.40;;;;;;5096230;28;20039;-74
2022/07/20 03:08:35;;;;;;;2.95;2.65;;;25.60;72.50;;;;;;5096324;28;20028;-74
2022/07/20 03:11:01;;;;;;;4.20;2.45;;;25.60;72.30;;;;;;5096162;28;20024;-75
2022/07/20 03:13:27;;;;;;;2.80;2.60;;;25.70;72.40;;;;;;5096161;28;20118;-74
2022/07/20 03:15:53;;;;;;;4.63;2.53;;;25.70;72.20;;;;;;5096170;28;20028;-74
2022/07/20 03:18:19;;;;;;;2.42;2.33;;;25.70;71.90;;;;;;5096041;28;20094;-74
2022/07/20 03:20:45;;;;;;;4.75;2.65;;;25.70;71.70;;;;;;5096068;28;20032;-74
2022/07/20 03:23:11;;;;;;;7.47;2.70;;;25.70;71.30;;;;;;5096022;28;20091;-74
2022/07/20 03:25:37;;;;;;;2.85;2.58;;;25.60;71.20;;;;;;5096038;28;20031;-74
2022/07/20 03:28:03;;;;;;;3.00;2.50;;;25.60;71.00;;;;;;5095782;28;20024;-75
2022/07/20 03:30:29;;;;;;;2.97;2.78;;;25.50;71.10;;;;;;5096145;28;20028;-74
2022/07/20 03:32:56;;;;;;;3.17;2.97;;;25.50;71.00;;;;;;5095081;28;20048;-74
2022/07/20 03:35:23;;;;;;;5.25;2.60;;;25.50;70.90;;;;;;5095601;28;20024;-74
2022/07/20 03:37:49;;;;;;;2.78;2.60;;;25.50;70.70;;;;;;5095719;28;20020;-74
2022/07/20 03:40:15;;;;;;;2.80;2.60;;;25.50;70.80;;;;;;5095714;28;20065;-74
2022/07/20 03:42:41;;;;;;;2.70;2.50;;;25.50;70.30;;;;;;5095659;28;20069;-74
2022/07/20 03:45:07;;;;;;;3.67;2.90;;;25.60;70.40;;;;;;5095756;28;20484;-74
2022/07/20 03:47:33;;;;;;;3.67;2.72;;;25.60;70.40;;;;;;5095581;28;20016;-74
2022/07/20 03:49:59;;;;;;;2.50;2.30;;;25.60;70.50;;;;;;5095450;28;20027;-74
2022/07/20 03:52:25;;;;;;;6.00;2.50;;;25.60;70.30;;;;;;5095503;28;20020;-74
2022/07/20 03:54:51;;;;;;;2.65;2.50;;;25.60;70.60;;;;;;5095494;28;20099;-74
2022/07/20 03:57:17;;;;;;;5.40;2.65;;;25.50;70.90;;;;;;5095323;28;20058;-74
2022/07/20 03:59:42;;;;;;;3.63;2.60;;;25.50;71.00;;;;;;5095395;28;20077;-74
2022/07/20 04:02:08;;;;;;;2.95;2.75;;;25.50;70.80;;;;;;5095194;28;20089;-74
2022/07/20 04:04:34;;;;;;;3.50;2.70;;;25.50;70.30;;;;;;5095140;28;20077;-74
2022/07/20 04:07:02;;;;;;;7.50;3.40;;;25.50;69.90;;;;;;5094973;28;20044;-74
2022/07/20 04:09:46;;;;;;;3.83;3.20;;;25.50;69.80;;;;;;5095156;28;20038;-74
2022/07/20 04:12:18;;;;;;;6.20;2.22;;;25.50;69.70;;;;;;5095035;28;20028;-74
2022/07/20 04:14:45;;;;;;;5.22;2.83;;;25.60;69.40;;;;;;5095176;28;20368;-74
2022/07/20 04:17:12;;;;;;;2.90;2.70;;;25.60;69.50;;;;;;5094821;28;20031;-74
2022/07/20 04:19:38;;;;;;;3.47;3.17;;;25.60;69.40;;;;;;5094815;28;20044;-74
2022/07/20 04:22:04;;;;;;;3.17;2.78;;;25.70;68.80;;;;;;5094935;28;20055;-74
2022/07/20 04:24:30;;;;;;;2.50;2.30;;;25.70;68.60;;;;;;5094795;28;20020;-74
2022/07/20 04:26:56;;;;;;;3.63;2.70;;;25.70;69.00;;;;;;5076396;28;20028;-74
2022/07/20 04:29:22;;;;;;;3.38;2.72;;;25.70;68.80;;;;;;5094810;28;20028;-74
2022/07/20 04:31:49;;;;;;;2.50;2.40;;;25.70;68.60;;;;;;5094611;28;20081;-74
2022/07/20 04:34:14;;;;;;;3.00;2.80;;;25.60;69.00;;;;;;5094891;28;20402;-74
2022/07/20 04:36:40;;;;;;;2.65;2.45;;;25.60;69.10;;;;;;5094519;28;20088;-74
2022/07/20 04:39:06;;;;;;;2.90;2.70;;;25.60;68.80;;;;;;5094492;28;20102;-74
2022/07/20 04:41:32;;;;;;;2.75;2.63;;;25.70;68.70;;;;;;5094426;28;20017;-74
2022/07/20 04:43:58;;;;;;;2.65;2.55;;;25.70;68.30;;;;;;5094382;28;20099;-74
2022/07/20 04:46:24;;;;;;;3.85;3.00;;;25.70;68.10;;;;;;5094315;28;20081;-74
2022/07/20 04:48:50;;;;;;;3.80;2.30;;;25.70;68.50;;;;;;5094255;28;20500;-74
2022/07/20 04:51:16;;;;;;;5.13;3.10;;;25.70;68.20;;;;;;5094405;28;20032;-74
2022/07/20 04:53:41;;;;;;;3.20;2.88;;;25.70;68.30;;;;;;5094272;28;20016;-75
2022/07/20 04:56:09;;;;;;;2.78;2.58;;;25.70;68.10;;;;;;5094189;28;20073;-74
2022/07/20 04:58:35;;;;;;;2.70;2.50;;;25.80;68.00;;;;;;5093991;28;20106;-74
2022/07/20 05:01:01;;;;;;;3.55;2.90;;;25.80;67.90;;;;;;5094045;28;20020;-74
2022/07/20 05:03:27;;;;;;;3.00;2.80;;;25.80;68.00;;;;;;5075742;28;20044;-74
2022/07/20 05:05:53;;;;;;;4.20;2.75;;;25.90;67.40;;;;;;5094029;28;20391;-74
2022/07/20 05:08:20;;;;;;;6.07;2.95;;;25.90;67.00;;;;;;5093664;28;20068;-74
2022/07/20 05:10:46;;;;;;;3.92;2.80;;;26.00;66.70;;;;;;5093802;28;20372;-74
2022/07/20 05:13:12;;;;;;;4.97;2.90;;;26.10;66.50;;;;;;5093721;28;20024;-74
2022/07/20 05:15:37;;;;;;;3.63;3.30;;;26.10;66.90;;;;;;5093523;28;20678;-74
2022/07/20 05:18:03;;;;;;;3.67;3.28;;;26.20;66.00;;;;;;5093685;28;20024;-74
